createdAt,value
2023-03-27T00:00:10.245Z,1.00
2023-03-27T00:02:37.812Z,1.87
2023-03-27T00:05:05.168Z,1.70
2023-03-27T00:07:31.754Z,1.07
2023-03-27T00:09:58.162Z,0.90
2023-03-27T00:12:24.598Z,1.03
2023-03-27T00:14:51.081Z,0.90
2023-03-27T00:17:18.176Z,1.13
2023-03-27T00:19:44.879Z,0.97
2023-03-27T00:22:11.282Z,0.80
2023-03-27T00:24:37.727Z,0.87
2023-03-27T00:27:04.196Z,0.93
2023-03-27T00:29:30.731Z,1.30
2023-03-27T00:31:57.156Z,0.80
2023-03-27T00:34:23.853Z,1.13
2023-03-27T00:36:51.908Z,1.30
2023-03-27T00:39:19.176Z,1.07
2023-03-27T00:41:45.684Z,1.37
2023-03-27T00:44:26.867Z,1.27
2023-03-27T00:46:55.160Z,1.30
2023-03-27T00:49:22.342Z,1.10
2023-03-27T00:51:49.247Z,0.93
2023-03-27T00:54:17.910Z,1.00
2023-03-27T00:56:45.412Z,0.83
2023-03-27T00:59:15.992Z,1.00
2023-03-27T01:01:44.519Z,1.20
2023-03-27T01:04:11.549Z,1.20
2023-03-27T01:06:39.030Z,1.13
2023-03-27T01:09:05.673Z,0.90
2023-03-27T01:11:39.793Z,0.80
2023-03-27T01:14:21.308Z,0.97
2023-03-27T01:16:53.676Z,1.00
2023-03-27T01:19:26.206Z,1.00
2023-03-27T01:21:52.606Z,1.47
2023-03-27T01:24:25.234Z,0.80
2023-03-27T01:26:57.401Z,0.90
2023-03-27T01:29:29.277Z,1.13
2023-03-27T01:32:19.187Z,1.40
2023-03-27T01:35:04.814Z,0.97
2023-03-27T01:37:51.555Z,1.37
2023-03-27T01:40:25.566Z,1.20
2023-03-27T01:43:00.694Z,1.20
2023-03-27T01:45:44.391Z,1.60
2023-03-27T01:48:20.549Z,1.33
2023-03-27T01:50:50.019Z,1.10
2023-03-27T01:53:30.229Z,1.53
2023-03-27T01:55:59.306Z,1.37
2023-03-27T01:58:29.265Z,1.10
2023-03-27T02:00:57.301Z,1.30
2023-03-27T02:03:37.468Z,0.80
2023-03-27T02:06:14.891Z,1.57
2023-03-27T02:09:00.203Z,1.70
2023-03-27T02:11:30.738Z,1.17
2023-03-27T02:14:02.137Z,1.10
2023-03-27T02:16:34.675Z,1.50
2023-03-27T02:19:04.141Z,1.33
2023-03-27T02:21:32.741Z,1.83
2023-03-27T02:24:02.032Z,1.20
2023-03-27T02:26:29.702Z,1.80
2023-03-27T02:29:19.015Z,1.20
2023-03-27T02:31:57.886Z,1.30
2023-03-27T02:34:31.618Z,1.30
2023-03-27T02:37:03.784Z,1.10
2023-03-27T02:39:50.749Z,1.70
2023-03-27T02:42:30.177Z,1.13
2023-03-27T02:45:02.594Z,1.40
2023-03-27T02:47:39.403Z,1.10
2023-03-27T02:50:10.685Z,1.50
2023-03-27T02:52:43.621Z,0.93
2023-03-27T02:55:16.923Z,1.30
2023-03-27T02:57:52.364Z,1.00
2023-03-27T03:00:34.351Z,1.07
2023-03-27T03:03:30.299Z,1.20
2023-03-27T03:06:07.018Z,1.30
2023-03-27T03:08:38.387Z,1.40
2023-03-27T03:11:09.410Z,1.50
2023-03-27T03:13:36.665Z,1.20
2023-03-27T03:16:03.281Z,1.50
2023-03-27T03:18:30.150Z,1.50
2023-03-27T03:20:58.415Z,1.10
2023-03-27T03:23:25.051Z,1.27
2023-03-27T03:25:52.676Z,1.17
2023-03-27T03:28:19.701Z,1.57
2023-03-27T03:30:50.377Z,1.03
2023-03-27T03:33:19.421Z,1.27
2023-03-27T03:35:46.845Z,1.10
2023-03-27T03:38:26.616Z,1.47
2023-03-27T03:40:55.248Z,1.53
2023-03-27T03:43:22.737Z,1.67
2023-03-27T03:45:49.798Z,1.30
2023-03-27T03:48:17.705Z,1.53
2023-03-27T03:50:44.914Z,1.93
2023-03-27T03:53:11.838Z,1.63
2023-03-27T03:55:38.957Z,1.53
2023-03-27T03:58:05.758Z,2.00
2023-03-27T04:00:38.059Z,1.57
2023-03-27T04:03:08.671Z,2.00
2023-03-27T04:05:36.876Z,1.90
2023-03-27T04:08:07.106Z,1.70
2023-03-27T04:11:06.531Z,2.30
2023-03-27T04:13:55.551Z,1.80
2023-03-27T04:16:34.352Z,1.37
2023-03-27T04:19:07.541Z,2.00
2023-03-27T04:21:37.554Z,1.73
2023-03-27T04:24:04.446Z,2.10
2023-03-27T04:26:43.921Z,1.40
2023-03-27T04:29:25.774Z,1.50
2023-03-27T04:31:58.307Z,1.70
2023-03-27T04:34:40.632Z,1.70
2023-03-27T04:37:40.585Z,1.90
2023-03-27T04:40:18.462Z,1.80
2023-03-27T04:42:45.270Z,2.00
2023-03-27T04:45:20.455Z,1.70
2023-03-27T04:47:49.719Z,1.93
2023-03-27T04:50:16.871Z,1.87
2023-03-27T04:52:44.761Z,1.30
2023-03-27T04:55:12.185Z,1.23
2023-03-27T04:57:41.643Z,1.03
2023-03-27T05:00:16.362Z,1.10
2023-03-27T05:02:42.979Z,1.80
2023-03-27T05:05:16.872Z,1.90
2023-03-27T05:07:47.415Z,1.67
2023-03-27T05:10:21.767Z,1.53
2023-03-27T05:12:50.480Z,1.10
2023-03-27T05:15:18.504Z,1.70
2023-03-27T05:17:47.023Z,2.07
2023-03-27T05:20:17.097Z,1.50
2023-03-27T05:22:43.837Z,1.47
2023-03-27T05:25:22.377Z,1.87
2023-03-27T05:27:50.059Z,1.93
2023-03-27T05:30:21.026Z,1.80
2023-03-27T05:32:52.113Z,1.13
2023-03-27T05:35:26.094Z,2.13
2023-03-27T05:37:54.648Z,1.37
2023-03-27T05:40:28.212Z,2.17
2023-03-27T05:42:55.725Z,1.47
2023-03-27T05:45:26.797Z,1.30
2023-03-27T05:47:54.215Z,1.80
2023-03-27T05:50:22.504Z,1.33
2023-03-27T05:52:56.169Z,1.40
2023-03-27T05:55:28.566Z,1.30
2023-03-27T05:57:55.994Z,1.73
2023-03-27T06:00:25.781Z,1.20
2023-03-27T06:02:55.093Z,1.20
2023-03-27T06:05:22.286Z,1.40
2023-03-27T06:07:50.815Z,1.20
2023-03-27T06:10:18.167Z,1.20
2023-03-27T06:13:04.925Z,1.33
2023-03-27T06:15:39.020Z,1.00
2023-03-27T06:18:22.312Z,1.00
2023-03-27T06:20:48.770Z,1.07
2023-03-27T06:23:15.590Z,1.30
2023-03-27T06:25:43.492Z,1.67
2023-03-27T06:28:12.235Z,1.00
2023-03-27T06:30:43.502Z,0.90
2023-03-27T06:33:25.686Z,1.40
2023-03-27T06:35:53.182Z,1.20
2023-03-27T06:38:31.458Z,1.40
2023-03-27T06:40:59.704Z,1.10
2023-03-27T06:43:40.280Z,1.40
2023-03-27T06:46:13.977Z,1.60
2023-03-27T06:49:09.149Z,1.20
2023-03-27T06:51:37.066Z,1.53
2023-03-27T06:54:04.646Z,1.20
2023-03-27T06:56:32.300Z,1.40
2023-03-27T06:59:17.519Z,1.23
2023-03-27T07:01:46.418Z,1.80
2023-03-27T07:04:33.323Z,1.23
2023-03-27T07:07:04.083Z,1.80
2023-03-27T07:09:35.208Z,2.00
2023-03-27T07:12:06.087Z,1.80
2023-03-27T07:14:34.385Z,2.20
2023-03-27T07:17:01.126Z,1.90
2023-03-27T07:19:39.842Z,1.93
2023-03-27T07:22:10.808Z,1.90
2023-03-27T07:24:37.897Z,2.80
2023-03-27T07:27:04.372Z,1.97
2023-03-27T07:29:32.887Z,2.10
2023-03-27T07:32:02.763Z,2.20
2023-03-27T07:34:51.477Z,1.50
2023-03-27T07:37:52.555Z,1.70
2023-03-27T07:40:40.063Z,1.70
2023-03-27T07:43:39.297Z,1.30
2023-03-27T07:46:07.159Z,1.70
2023-03-27T07:48:35.787Z,1.43
2023-03-27T07:51:13.442Z,1.57
2023-03-27T07:53:41.770Z,2.80
2023-03-27T07:56:22.101Z,1.13
2023-03-27T07:58:50.952Z,0.90
2023-03-27T08:01:20.769Z,3.20
2023-03-27T08:03:48.963Z,1.50
2023-03-27T08:06:18.148Z,1.30
2023-03-27T08:08:45.584Z,1.50
2023-03-27T08:11:23.142Z,1.80
2023-03-27T08:13:56.595Z,1.20
2023-03-27T08:16:27.567Z,1.00
2023-03-27T08:18:56.081Z,1.10
2023-03-27T08:21:24.061Z,1.10
2023-03-27T08:23:50.584Z,1.20
2023-03-27T08:26:36.184Z,1.00
2023-03-27T08:29:07.205Z,1.07
2023-03-27T08:31:34.765Z,1.10
2023-03-27T08:34:03.996Z,1.30
2023-03-27T08:36:40.673Z,1.40
2023-03-27T08:39:08.222Z,1.07
2023-03-27T08:41:43.816Z,1.47
2023-03-27T08:44:17.633Z,1.10
2023-03-27T08:46:44.912Z,1.20
2023-03-27T08:49:15.466Z,1.40
2023-03-27T08:51:49.729Z,1.13
2023-03-27T08:54:22.169Z,1.33
2023-03-27T08:56:50.091Z,1.53
2023-03-27T08:59:21.101Z,1.27
2023-03-27T09:02:05.967Z,1.50
2023-03-27T09:04:41.145Z,1.60
2023-03-27T09:07:27.226Z,1.83
2023-03-27T09:10:35.606Z,1.47
2023-03-27T09:13:18.457Z,1.10
2023-03-27T09:15:51.675Z,1.00
2023-03-27T09:18:30.953Z,1.33
2023-03-27T09:21:04.012Z,1.10
2023-03-27T09:23:37.031Z,1.07
2023-03-27T09:26:30.531Z,1.30
2023-03-27T09:29:22.345Z,1.00
2023-03-27T09:32:03.987Z,1.33
2023-03-27T09:34:34.090Z,1.33
2023-03-27T09:37:00.901Z,1.40
2023-03-27T09:39:35.088Z,1.30
2023-03-27T09:42:17.631Z,1.23
2023-03-27T09:44:52.036Z,1.53
2023-03-27T09:47:22.758Z,1.30
2023-03-27T09:49:53.375Z,1.50
2023-03-27T09:52:37.603Z,1.50
2023-03-27T09:55:24.854Z,1.43
2023-03-27T09:57:58.310Z,1.93
2023-03-27T10:00:27.609Z,1.27
2023-03-27T10:02:59.294Z,1.27
2023-03-27T10:05:26.315Z,1.63
2023-03-27T10:07:56.458Z,1.00
2023-03-27T10:10:54.973Z,1.10
2023-03-27T10:13:34.629Z,0.77
2023-03-27T10:16:05.076Z,0.70
2023-03-27T10:18:43.331Z,0.90
2023-03-27T10:21:17.382Z,0.90
2023-03-27T10:23:49.537Z,1.13
2023-03-27T10:26:26.973Z,1.00
2023-03-27T10:28:58.042Z,1.20
2023-03-27T10:31:38.067Z,1.23
2023-03-27T10:34:28.585Z,1.30
2023-03-27T10:37:19.510Z,1.00
2023-03-27T10:39:51.797Z,1.50
2023-03-27T10:42:31.233Z,1.20
2023-03-27T10:44:58.708Z,1.40
2023-03-27T10:47:30.764Z,1.20
2023-03-27T10:50:09.599Z,0.90
2023-03-27T10:52:42.835Z,1.30
2023-03-27T10:55:22.772Z,0.80
2023-03-27T10:57:53.689Z,0.90
2023-03-27T11:00:38.626Z,0.80
2023-03-27T11:03:09.627Z,1.10
2023-03-27T11:05:43.094Z,0.90
2023-03-27T11:08:27.268Z,2.10
2023-03-27T11:10:55.390Z,1.87
2023-03-27T11:13:32.118Z,0.93
2023-03-27T11:16:11.794Z,1.40
2023-03-27T11:19:15.345Z,1.07
2023-03-27T11:22:03.831Z,1.17
2023-03-27T11:24:42.462Z,1.20
2023-03-27T11:27:14.705Z,0.70
2023-03-27T11:30:00.546Z,0.90
2023-03-27T11:32:35.276Z,1.00
2023-03-27T11:35:05.932Z,1.37
2023-03-27T11:37:50.232Z,0.90
2023-03-27T11:40:37.961Z,0.50
2023-03-27T11:43:05.197Z,0.67
2023-03-27T11:45:41.187Z,0.60
2023-03-27T11:48:27.012Z,0.40
2023-03-27T11:51:12.349Z,0.50
2023-03-27T11:53:46.481Z,0.50
2023-03-27T11:56:19.789Z,0.50
2023-03-27T11:59:04.512Z,1.10
2023-03-27T12:01:51.290Z,0.60
2023-03-27T12:04:42.271Z,0.60
2023-03-27T12:07:47.360Z,0.60
2023-03-27T12:10:28.918Z,0.60
2023-03-27T12:13:09.243Z,0.90
2023-03-27T12:15:57.037Z,1.10
2023-03-27T12:18:59.478Z,0.90
2023-03-27T12:21:46.644Z,1.00
2023-03-27T12:24:21.247Z,1.03
2023-03-27T12:27:20.724Z,0.80
2023-03-27T12:30:01.160Z,0.80
2023-03-27T12:32:34.804Z,1.47
2023-03-27T12:35:08.442Z,0.87
2023-03-27T12:37:43.808Z,0.80
2023-03-27T12:40:25.305Z,1.10
2023-03-27T12:42:52.762Z,2.00
2023-03-27T12:45:24.729Z,2.47
2023-03-27T12:48:09.856Z,1.20
2023-03-27T12:50:41.968Z,1.00
2023-03-27T12:53:18.795Z,0.97
2023-03-27T12:55:45.819Z,2.00
2023-03-27T12:58:32.361Z,0.70
2023-03-27T13:01:09.189Z,0.70
2023-03-27T13:03:53.008Z,0.60
2023-03-27T13:06:33.033Z,0.60
2023-03-27T13:09:19.507Z,0.83
2023-03-27T13:12:07.598Z,0.70
2023-03-27T13:14:44.938Z,0.60
2023-03-27T13:17:37.173Z,0.70
2023-03-27T13:20:17.902Z,0.90
2023-03-27T13:23:08.237Z,0.63
2023-03-27T13:25:55.869Z,0.50
2023-03-27T13:28:29.243Z,0.70
2023-03-27T13:31:07.682Z,0.70
2023-03-27T13:34:09.819Z,0.70
2023-03-27T13:36:40.902Z,0.60
2023-03-27T13:39:11.795Z,0.77
2023-03-27T13:41:45.077Z,0.70
2023-03-27T13:44:30.630Z,1.20
2023-03-27T13:47:12.284Z,1.10
2023-03-27T13:49:38.721Z,0.80
2023-03-27T13:52:20.442Z,1.03
2023-03-27T13:54:46.930Z,0.67
2023-03-27T13:57:26.443Z,1.10
2023-03-27T14:00:13.921Z,0.80
2023-03-27T14:03:02.966Z,0.90
2023-03-27T14:05:35.740Z,0.60
2023-03-27T14:08:28.170Z,0.60
2023-03-27T14:11:39.374Z,1.47
2023-03-27T14:14:21.520Z,0.67
2023-03-27T14:16:58.599Z,0.70
2023-03-27T14:19:46.975Z,0.60
2023-03-27T14:22:40.581Z,1.00
2023-03-27T14:25:19.929Z,0.93
2023-03-27T14:27:57.357Z,0.87
2023-03-27T14:30:46.204Z,0.90
2023-03-27T14:33:25.905Z,0.70
2023-03-27T14:36:03.325Z,0.80
2023-03-27T14:38:35.645Z,0.70
2023-03-27T14:41:06.867Z,0.50
2023-03-27T14:43:58.720Z,0.67
2023-03-27T14:46:26.950Z,0.70
2023-03-27T14:48:58.070Z,1.00
2023-03-27T14:51:34.746Z,0.80
2023-03-27T14:54:04.825Z,0.80
2023-03-27T14:56:47.679Z,0.80
2023-03-27T14:59:28.295Z,1.10
2023-03-27T15:01:59.143Z,0.73
2023-03-27T15:04:28.019Z,0.80
2023-03-27T15:07:13.084Z,0.70
2023-03-27T15:09:59.923Z,0.70
2023-03-27T15:12:47.422Z,1.00
2023-03-27T15:15:21.877Z,0.80
2023-03-27T15:17:50.530Z,1.10
2023-03-27T15:20:18.591Z,0.77
2023-03-27T15:22:48.904Z,0.93
2023-03-27T15:25:24.764Z,1.00
2023-03-27T15:27:53.039Z,0.83
2023-03-27T15:30:28.255Z,0.77
2023-03-27T15:32:56.375Z,1.00
2023-03-27T15:35:27.738Z,0.97
2023-03-27T15:37:56.594Z,0.73
2023-03-27T15:40:34.204Z,1.10
2023-03-27T15:43:27.086Z,1.57
2023-03-27T15:45:58.943Z,1.10
2023-03-27T15:48:28.881Z,1.13
2023-03-27T15:50:55.764Z,0.83
2023-03-27T15:53:49.247Z,0.97
2023-03-27T15:56:19.392Z,1.00
2023-03-27T15:58:53.793Z,1.00
2023-03-27T16:01:22.382Z,0.70
2023-03-27T16:03:51.315Z,1.00
2023-03-27T16:06:33.425Z,1.10
2023-03-27T16:09:00.739Z,1.00
2023-03-27T16:11:34.044Z,2.30
2023-03-27T16:14:00.510Z,0.87
2023-03-27T16:16:29.003Z,1.40
2023-03-27T16:19:04.273Z,0.70
2023-03-27T16:21:33.508Z,1.77
2023-03-27T16:24:00.523Z,1.10
2023-03-27T16:26:28.120Z,0.83
2023-03-27T16:28:56.263Z,1.03
2023-03-27T16:31:23.251Z,1.20
2023-03-27T16:33:49.687Z,1.37
2023-03-27T16:36:17.857Z,1.07
2023-03-27T16:38:44.716Z,1.23
2023-03-27T16:41:15.241Z,0.90
2023-03-27T16:43:43.127Z,1.00
2023-03-27T16:46:14.624Z,0.97
2023-03-27T16:48:41.024Z,0.80
2023-03-27T16:51:08.034Z,0.83
2023-03-27T16:53:35.060Z,0.80
2023-03-27T16:56:02.429Z,1.07
2023-03-27T16:58:28.792Z,0.70
2023-03-27T17:00:59.304Z,0.70
2023-03-27T17:03:26.171Z,0.63
2023-03-27T17:05:52.534Z,0.57
2023-03-27T17:08:18.926Z,0.73
2023-03-27T17:10:46.337Z,0.70
2023-03-27T17:13:13.186Z,0.90
2023-03-27T17:15:40.242Z,0.80
2023-03-27T17:18:07.853Z,1.10
2023-03-27T17:20:35.314Z,0.60
2023-03-27T17:23:02.357Z,0.70
2023-03-27T17:25:28.803Z,0.53
2023-03-27T17:27:55.256Z,0.70
2023-03-27T17:30:36.844Z,0.73
2023-03-27T17:33:06.081Z,0.80
2023-03-27T17:35:33.070Z,0.90
2023-03-27T17:38:00.300Z,1.40
2023-03-27T17:40:27.144Z,0.70
2023-03-27T17:42:53.543Z,0.60
2023-03-27T17:45:20.018Z,0.70
2023-03-27T17:47:47.034Z,1.10
2023-03-27T17:50:13.446Z,1.03
2023-03-27T17:52:40.370Z,0.90
2023-03-27T17:55:07.377Z,1.30
2023-03-27T17:57:34.301Z,1.13
2023-03-27T18:00:06.404Z,1.50
2023-03-27T18:02:38.969Z,2.43
2023-03-27T18:05:06.848Z,1.93
2023-03-27T18:07:33.862Z,2.27
2023-03-27T18:10:00.255Z,1.37
2023-03-27T18:12:26.617Z,1.70
2023-03-27T18:14:53.033Z,1.70
2023-03-27T18:17:21.127Z,0.90
2023-03-27T18:19:47.665Z,1.20
2023-03-27T18:22:14.739Z,1.70
2023-03-27T18:24:42.875Z,1.53
2023-03-27T18:27:10.893Z,2.00
2023-03-27T18:29:38.402Z,8.93
2023-03-27T18:32:05.432Z,12.13
2023-03-27T18:34:31.944Z,3.93
2023-03-27T18:36:58.331Z,4.20
2023-03-27T18:39:24.822Z,4.27
2023-03-27T18:41:52.198Z,5.60
2023-03-27T18:44:19.088Z,4.80
2023-03-27T18:46:45.773Z,5.17
2023-03-27T18:49:23.745Z,3.20
2023-03-27T18:51:52.478Z,7.50
2023-03-27T18:54:19.169Z,5.60
2023-03-27T18:56:46.487Z,5.43
2023-03-27T18:59:14.354Z,5.23
2023-03-27T19:01:40.872Z,14.87
2023-03-27T19:04:07.332Z,6.80
2023-03-27T19:06:34.983Z,1.40
2023-03-27T19:09:02.044Z,1.03
2023-03-27T19:11:28.960Z,0.90
2023-03-27T19:14:13.899Z,1.57
2023-03-27T19:16:53.260Z,3.80
2023-03-27T19:19:39.378Z,4.03
2023-03-27T19:22:15.249Z,15.70
2023-03-27T19:24:46.482Z,6.10
2023-03-27T19:27:23.479Z,3.40
2023-03-27T19:29:51.660Z,2.80
2023-03-27T19:32:18.074Z,4.20
2023-03-27T19:34:44.600Z,4.77
2023-03-27T19:37:11.212Z,2.23
2023-03-27T19:39:38.434Z,2.00
2023-03-27T19:42:04.868Z,1.60
2023-03-27T19:44:35.115Z,2.10
2023-03-27T19:47:03.606Z,4.47
2023-03-27T19:49:30.474Z,2.83
2023-03-27T19:52:16.788Z,1.80
2023-03-27T19:54:43.743Z,1.50
2023-03-27T19:57:10.232Z,1.60
2023-03-27T19:59:37.378Z,1.90
2023-03-27T20:02:04.480Z,3.40
2023-03-27T20:04:31.689Z,3.83
2023-03-27T20:07:01.652Z,2.53
2023-03-27T20:09:28.595Z,2.23
2023-03-27T20:11:55.741Z,4.20
2023-03-27T20:14:22.482Z,3.47
2023-03-27T20:16:50.871Z,3.20
2023-03-27T20:19:17.367Z,2.67
2023-03-27T20:21:44.444Z,4.40
2023-03-27T20:24:14.385Z,5.97
2023-03-27T20:26:48.231Z,2.60
2023-03-27T20:29:20.606Z,2.70
2023-03-27T20:31:48.243Z,3.43
2023-03-27T20:34:14.934Z,3.47
2023-03-27T20:36:43.274Z,6.80
2023-03-27T20:39:44.430Z,5.20
2023-03-27T20:42:14.885Z,6.67
2023-03-27T20:44:42.495Z,3.73
2023-03-27T20:47:12.569Z,2.90
2023-03-27T20:49:43.577Z,3.30
2023-03-27T20:52:11.889Z,2.33
2023-03-27T20:54:38.342Z,2.83
2023-03-27T20:57:05.451Z,4.10
2023-03-27T20:59:32.256Z,4.40
2023-03-27T21:01:59.341Z,3.00
2023-03-27T21:04:28.034Z,2.60
2023-03-27T21:06:55.178Z,2.73
2023-03-27T21:09:22.129Z,1.80
2023-03-27T21:11:49.004Z,2.13
2023-03-27T21:14:15.831Z,1.43
2023-03-27T21:16:42.888Z,2.03
2023-03-27T21:19:10.642Z,1.30
2023-03-27T21:21:37.578Z,1.67
2023-03-27T21:24:04.667Z,1.23
2023-03-27T21:26:31.167Z,1.43
2023-03-27T21:28:57.714Z,1.00
2023-03-27T21:31:24.173Z,1.20
2023-03-27T21:33:50.678Z,1.60
2023-03-27T21:36:17.419Z,1.20
2023-03-27T21:38:44.302Z,1.50
2023-03-27T21:41:13.117Z,1.80
2023-03-27T21:43:39.575Z,1.53
2023-03-27T21:46:06.302Z,1.30
2023-03-27T21:48:33.097Z,1.60
2023-03-27T21:51:00.934Z,1.90
2023-03-27T21:53:27.361Z,1.60
2023-03-27T21:55:53.854Z,1.77
2023-03-27T21:58:20.338Z,1.77
2023-03-27T22:00:47.292Z,1.40
2023-03-27T22:03:14.044Z,1.40
2023-03-27T22:05:40.760Z,1.40
2023-03-27T22:08:07.747Z,1.70
2023-03-27T22:10:34.676Z,1.33
2023-03-27T22:13:01.777Z,1.20
2023-03-27T22:15:29.037Z,1.80
2023-03-27T22:17:56.052Z,1.80
2023-03-27T22:20:22.911Z,1.70
2023-03-27T22:22:49.411Z,1.90
2023-03-27T22:25:15.926Z,2.27
2023-03-27T22:27:42.697Z,1.70
2023-03-27T22:30:09.816Z,1.83
2023-03-27T22:32:36.330Z,2.10
2023-03-27T22:35:02.815Z,1.33
2023-03-27T22:37:29.242Z,1.50
2023-03-27T22:39:55.650Z,1.10
2023-03-27T22:42:22.060Z,1.30
2023-03-27T22:44:48.782Z,1.30
2023-03-27T22:47:15.240Z,1.03
2023-03-27T22:49:41.657Z,1.70
2023-03-27T22:52:08.306Z,1.10
2023-03-27T22:54:34.946Z,1.00
2023-03-27T22:57:01.939Z,1.10
2023-03-27T22:59:28.404Z,1.30
2023-03-27T23:01:54.950Z,1.00
2023-03-27T23:04:21.423Z,1.53
2023-03-27T23:06:48.848Z,1.60
2023-03-27T23:09:15.312Z,1.47
2023-03-27T23:11:44.007Z,0.90
2023-03-27T23:14:11.225Z,1.20
2023-03-27T23:16:37.749Z,1.90
2023-03-27T23:19:04.429Z,1.10
2023-03-27T23:21:31.093Z,1.20
2023-03-27T23:23:57.837Z,1.40
2023-03-27T23:26:24.253Z,1.30
2023-03-27T23:28:50.856Z,1.03
2023-03-27T23:31:18.532Z,2.03
2023-03-27T23:33:46.445Z,1.90
2023-03-27T23:36:15.796Z,1.47
2023-03-27T23:38:42.862Z,2.27
2023-03-27T23:41:10.141Z,1.77
2023-03-27T23:43:36.928Z,1.90
2023-03-27T23:46:04.824Z,1.33
2023-03-27T23:48:31.339Z,1.37
2023-03-27T23:50:57.821Z,1.30
2023-03-27T23:53:26.092Z,1.30
2023-03-27T23:55:53.001Z,1.30
2023-03-27T23:58:19.829Z,1.53
